sensor_id;sensor_type;location;lat;lon;timestamp;pressure;altitude;pressure_sealevel;temperature;humidity
11621;BME280;5866;49.094;11.900;2023-02-21T00:01:25;96580.78;;;7.21;100.00
11621;BME280;5866;49.094;11.900;2023-02-21T00:04:10;96573.00;;;7.19;100.00
11621;BME280;5866;49.094;11.900;2023-02-21T00:06:55;96578.84;;;7.23;100.00
11621;BME280;5866;49.094;11.900;2023-02-21T00:09:40;96576.09;;;7.25;100.00
11621;BME280;5866;49.094;11.900;2023-02-21T00:12:25;96575.00;;;7.37;100.00
11621;BME280;5866;49.094;11.900;2023-02-21T00:15:10;96581.88;;;7.18;100.00
11621;BME280;5866;49.094;11.900;2023-02-21T00:17:57;96570.53;;;7.28;100.00
11621;BME280;5866;49.094;11.900;2023-02-21T00:20:42;96573.59;;;7.33;100.00
11621;BME280;5866;49.094;11.900;2023-02-21T00:23:27;96560.91;;;7.17;100.00
11621;BME280;5866;49.094;11.900;2023-02-21T00:26:16;96564.84;;;7.22;100.00
11621;BME280;5866;49.094;11.900;2023-02-21T00:29:01;96553.28;;;7.14;100.00
11621;BME280;5866;49.094;11.900;2023-02-21T00:31:46;96549.47;;;7.37;100.00
11621;BME280;5866;49.094;11.900;2023-02-21T00:34:33;96559.66;;;7.21;100.00
11621;BME280;5866;49.094;11.900;2023-02-21T00:37:18;96555.22;;;7.21;100.00
11621;BME280;5866;49.094;11.900;2023-02-21T00:40:04;96557.63;;;7.34;100.00
11621;BME280;5866;49.094;11.900;2023-02-21T00:42:49;96556.69;;;7.45;100.00
11621;BME280;5866;49.094;11.900;2023-02-21T00:45:34;96558.97;;;7.19;100.00
11621;BME280;5866;49.094;11.900;2023-02-21T00:48:20;96556.19;;;7.20;100.00
11621;BME280;5866;49.094;11.900;2023-02-21T00:51:06;96559.56;;;7.22;100.00
11621;BME280;5866;49.094;11.900;2023-02-21T00:53:51;96556.03;;;7.12;100.00
11621;BME280;5866;49.094;11.900;2023-02-21T00:56:36;96554.44;;;7.40;100.00
11621;BME280;5866;49.094;11.900;2023-02-21T00:59:21;96542.81;;;7.43;100.00
11621;BME280;5866;49.094;11.900;2023-02-21T01:02:07;96550.47;;;7.55;100.00
11621;BME280;5866;49.094;11.900;2023-02-21T01:04:53;96548.94;;;7.53;100.00
11621;BME280;5866;49.094;11.900;2023-02-21T01:07:40;96542.81;;;7.43;100.00
11621;BME280;5866;49.094;11.900;2023-02-21T01:10:25;96546.38;;;7.22;100.00
11621;BME280;5866;49.094;11.900;2023-02-21T01:13:10;96542.88;;;7.22;100.00
11621;BME280;5866;49.094;11.900;2023-02-21T01:15:55;96542.66;;;7.35;100.00
11621;BME280;5866;49.094;11.900;2023-02-21T01:18:40;96537.78;;;7.40;100.00
11621;BME280;5866;49.094;11.900;2023-02-21T01:21:25;96537.78;;;7.40;100.00
11621;BME280;5866;49.094;11.900;2023-02-21T01:24:14;96535.06;;;7.20;100.00
11621;BME280;5866;49.094;11.900;2023-02-21T01:26:59;96535.28;;;7.38;100.00
11621;BME280;5866;49.094;11.900;2023-02-21T01:29:44;96536.72;;;7.52;100.00
11621;BME280;5866;49.094;11.900;2023-02-21T01:32:31;96528.16;;;8.26;100.00
11621;BME280;5866;49.094;11.900;2023-02-21T01:35:16;96525.63;;;7.96;100.00
11621;BME280;5866;49.094;11.900;2023-02-21T01:38:02;96532.16;;;7.82;100.00
11621;BME280;5866;49.094;11.900;2023-02-21T01:40:49;96525.06;;;8.21;100.00
11621;BME280;5866;49.094;11.900;2023-02-21T01:43:34;96534.50;;;7.57;100.00
11621;BME280;5866;49.094;11.900;2023-02-21T01:46:20;96533.03;;;7.34;100.00
11621;BME280;5866;49.094;11.900;2023-02-21T01:49:08;96528.41;;;7.66;100.00
11621;BME280;5866;49.094;11.900;2023-02-21T01:51:56;96516.19;;;8.22;100.00
11621;BME280;5866;49.094;11.900;2023-02-21T01:54:45;96528.66;;;7.53;100.00
11621;BME280;5866;49.094;11.900;2023-02-21T01:57:34;96531.41;;;7.33;100.00
11621;BME280;5866;49.094;11.900;2023-02-21T02:00:19;96523.19;;;7.36;100.00
11621;BME280;5866;49.094;11.900;2023-02-21T02:03:07;96522.84;;;7.88;100.00
11621;BME280;5866;49.094;11.900;2023-02-21T02:05:55;96508.69;;;8.08;100.00
11621;BME280;5866;49.094;11.900;2023-02-21T02:08:41;96507.72;;;8.28;100.00
11621;BME280;5866;49.094;11.900;2023-02-21T02:11:41;96501.16;;;8.13;100.00
11621;BME280;5866;49.094;11.900;2023-02-21T02:14:50;96512.28;;;8.07;100.00
11621;BME280;5866;49.094;11.900;2023-02-21T02:17:33;96508.97;;;7.95;100.00
11621;BME280;5866;49.094;11.900;2023-02-21T02:20:34;96497.41;;;8.35;100.00
11621;BME280;5866;49.094;11.900;2023-02-21T02:23:25;96497.28;;;8.46;98.57
11621;BME280;5866;49.094;11.900;2023-02-21T02:26:09;96491.19;;;8.26;100.00
11621;BME280;5866;49.094;11.900;2023-02-21T02:28:51;96486.16;;;8.14;100.00
11621;BME280;5866;49.094;11.900;2023-02-21T02:31:44;96491.72;;;8.20;100.00
11621;BME280;5866;49.094;11.900;2023-02-21T02:34:39;96488.66;;;8.15;100.00
11621;BME280;5866;49.094;11.900;2023-02-21T02:37:18;96495.63;;;7.97;100.00
11621;BME280;5866;49.094;11.900;2023-02-21T02:39:55;96498.13;;;7.89;100.00
11621;BME280;5866;49.094;11.900;2023-02-21T02:42:34;96491.84;;;8.09;100.00
11621;BME280;5866;49.094;11.900;2023-02-21T02:45:08;96489.91;;;8.30;100.00
11621;BME280;5866;49.094;11.900;2023-02-21T02:47:41;96489.34;;;8.08;100.00
11621;BME280;5866;49.094;11.900;2023-02-21T02:50:12;96488.06;;;8.21;100.00
11621;BME280;5866;49.094;11.900;2023-02-21T02:52:50;96483.22;;;8.36;98.20
11621;BME280;5866;49.094;11.900;2023-02-21T02:55:25;96492.28;;;7.76;100.00
11621;BME280;5866;49.094;11.900;2023-02-21T02:57:56;96478.38;;;8.12;100.00
11621;BME280;5866;49.094;11.900;2023-02-21T03:00:25;96493.66;;;7.99;100.00
11621;BME280;5866;49.094;11.900;2023-02-21T03:03:04;96480.31;;;7.72;100.00
11621;BME280;5866;49.094;11.900;2023-02-21T03:05:46;96488.66;;;7.67;100.00
11621;BME280;5866;49.094;11.900;2023-02-21T03:08:22;96492.00;;;7.60;100.00
11621;BME280;5866;49.094;11.900;2023-02-21T03:10:57;96499.50;;;7.74;100.00
11621;BME280;5866;49.094;11.900;2023-02-21T03:13:34;96494.50;;;8.28;100.00
11621;BME280;5866;49.094;11.900;2023-02-21T03:16:11;96486.41;;;8.49;98.54
11621;BME280;5866;49.094;11.900;2023-02-21T03:18:43;96504.25;;;8.37;97.37
11621;BME280;5866;49.094;11.900;2023-02-21T03:21:19;96508.13;;;7.76;100.00
11621;BME280;5866;49.094;11.900;2023-02-21T03:23:50;96507.28;;;7.66;100.00
11621;BME280;5866;49.094;11.900;2023-02-21T03:26:19;96499.91;;;8.17;100.00
11621;BME280;5866;49.094;11.900;2023-02-21T03:28:47;96516.25;;;7.35;100.00
11621;BME280;5866;49.094;11.900;2023-02-21T03:31:18;96516.75;;;7.68;100.00
11621;BME280;5866;49.094;11.900;2023-02-21T03:33:48;96500.31;;;7.65;100.00
11621;BME280;5866;49.094;11.900;2023-02-21T03:36:17;96506.28;;;7.67;100.00
11621;BME280;5866;49.094;11.900;2023-02-21T03:38:44;96507.00;;;7.50;100.00
11621;BME280;5866;49.094;11.900;2023-02-21T03:41:12;96509.53;;;7.70;100.00
11621;BME280;5866;49.094;11.900;2023-02-21T03:43:41;96505.34;;;7.68;100.00
11621;BME280;5866;49.094;11.900;2023-02-21T03:46:08;96516.97;;;7.46;100.00
11621;BME280;5866;49.094;11.900;2023-02-21T03:48:36;96513.97;;;7.20;100.00
11621;BME280;5866;49.094;11.900;2023-02-21T03:51:04;96523.59;;;7.31;100.00
11621;BME280;5866;49.094;11.900;2023-02-21T03:53:33;96510.19;;;7.63;100.00
11621;BME280;5866;49.094;11.900;2023-02-21T03:56:00;96513.13;;;7.69;100.00
11621;BME280;5866;49.094;11.900;2023-02-21T03:58:28;96510.31;;;7.52;100.00
11621;BME280;5866;49.094;11.900;2023-02-21T04:00:55;96509.44;;;7.42;100.00
11621;BME280;5866;49.094;11.900;2023-02-21T04:03:23;96513.38;;;7.47;100.00
11621;BME280;5866;49.094;11.900;2023-02-21T04:05:50;96500.72;;;7.51;100.00
11621;BME280;5866;49.094;11.900;2023-02-21T04:08:18;96517.56;;;7.50;100.00
11621;BME280;5866;49.094;11.900;2023-02-21T04:10:46;96515.59;;;7.61;100.00
11621;BME280;5866;49.094;11.900;2023-02-21T04:13:18;96515.06;;;7.58;100.00
11621;BME280;5866;49.094;11.900;2023-02-21T04:15:45;96512.22;;;7.40;100.00
11621;BME280;5866;49.094;11.900;2023-02-21T04:18:13;96512.09;;;6.92;100.00
11621;BME280;5866;49.094;11.900;2023-02-21T04:20:40;96511.00;;;6.44;100.00
11621;BME280;5866;49.094;11.900;2023-02-21T04:23:08;96514.16;;;6.38;100.00
11621;BME280;5866;49.094;11.900;2023-02-21T04:25:36;96508.84;;;6.49;100.00
11621;BME280;5866;49.094;11.900;2023-02-21T04:28:05;96514.50;;;6.75;100.00
11621;BME280;5866;49.094;11.900;2023-02-21T04:30:32;96514.03;;;6.90;100.00
11621;BME280;5866;49.094;11.900;2023-02-21T04:33:00;96504.69;;;6.56;100.00
11621;BME280;5866;49.094;11.900;2023-02-21T04:35:29;96509.47;;;6.41;100.00
11621;BME280;5866;49.094;11.900;2023-02-21T04:37:56;96517.22;;;6.02;100.00
11621;BME280;5866;49.094;11.900;2023-02-21T04:40:23;96516.84;;;5.75;100.00
11621;BME280;5866;49.094;11.900;2023-02-21T04:42:51;96521.19;;;5.64;100.00
11621;BME280;5866;49.094;11.900;2023-02-21T04:45:20;96500.38;;;5.61;100.00
11621;BME280;5866;49.094;11.900;2023-02-21T04:47:47;96522.28;;;5.62;100.00
11621;BME280;5866;49.094;11.900;2023-02-21T04:50:15;96511.03;;;5.60;100.00
11621;BME280;5866;49.094;11.900;2023-02-21T04:52:42;96521.88;;;5.78;100.00
11621;BME280;5866;49.094;11.900;2023-02-21T04:55:10;96519.91;;;5.91;100.00
11621;BME280;5866;49.094;11.900;2023-02-21T04:57:37;96520.34;;;6.07;100.00
11621;BME280;5866;49.094;11.900;2023-02-21T05:00:05;96519.25;;;6.30;100.00
11621;BME280;5866;49.094;11.900;2023-02-21T05:02:34;96517.88;;;5.94;100.00
11621;BME280;5866;49.094;11.900;2023-02-21T05:05:02;96509.16;;;6.14;100.00
11621;BME280;5866;49.094;11.900;2023-02-21T05:07:30;96501.72;;;6.19;100.00
11621;BME280;5866;49.094;11.900;2023-02-21T05:09:57;96502.44;;;6.52;100.00
11621;BME280;5866;49.094;11.900;2023-02-21T05:12:25;96501.75;;;6.70;100.00
11621;BME280;5866;49.094;11.900;2023-02-21T05:14:52;96492.66;;;6.93;100.00
11621;BME280;5866;49.094;11.900;2023-02-21T05:17:20;96484.94;;;7.01;100.00
11621;BME280;5866;49.094;11.900;2023-02-21T05:19:48;96492.78;;;6.92;100.00
11621;BME280;5866;49.094;11.900;2023-02-21T05:22:17;96496.59;;;7.08;100.00
11621;BME280;5866;49.094;11.900;2023-02-21T05:24:45;96494.44;;;7.33;100.00
11621;BME280;5866;49.094;11.900;2023-02-21T05:27:15;96488.78;;;7.56;100.00
11621;BME280;5866;49.094;11.900;2023-02-21T05:29:45;96491.16;;;7.50;100.00
11621;BME280;5866;49.094;11.900;2023-02-21T05:32:13;96481.84;;;8.03;100.00
11621;BME280;5866;49.094;11.900;2023-02-21T05:34:40;96485.88;;;7.69;100.00
11621;BME280;5866;49.094;11.900;2023-02-21T05:37:11;96476.56;;;7.55;100.00
11621;BME280;5866;49.094;11.900;2023-02-21T05:39:38;96493.50;;;7.53;100.00
11621;BME280;5866;49.094;11.900;2023-02-21T05:42:06;96489.88;;;7.35;100.00
11621;BME280;5866;49.094;11.900;2023-02-21T05:44:33;96485.16;;;7.38;100.00
11621;BME280;5866;49.094;11.900;2023-02-21T05:47:01;96464.75;;;7.97;100.00
11621;BME280;5866;49.094;11.900;2023-02-21T05:49:29;96480.59;;;8.26;100.00
11621;BME280;5866;49.094;11.900;2023-02-21T05:51:56;96485.88;;;7.50;100.00
11621;BME280;5866;49.094;11.900;2023-02-21T05:54:25;96484.19;;;7.49;100.00
11621;BME280;5866;49.094;11.900;2023-02-21T05:56:52;96491.59;;;7.93;100.00
11621;BME280;5866;49.094;11.900;2023-02-21T05:59:20;96485.88;;;7.88;100.00
11621;BME280;5866;49.094;11.900;2023-02-21T06:01:48;96485.59;;;7.72;100.00
11621;BME280;5866;49.094;11.900;2023-02-21T06:04:17;96493.41;;;8.02;100.00
11621;BME280;5866;49.094;11.900;2023-02-21T06:06:45;96478.19;;;8.42;100.00
11621;BME280;5866;49.094;11.900;2023-02-21T06:09:12;96486.13;;;8.23;100.00
11621;BME280;5866;49.094;11.900;2023-02-21T06:11:41;96482.88;;;8.67;100.00
11621;BME280;5866;49.094;11.900;2023-02-21T06:14:14;96482.78;;;9.23;99.50
11621;BME280;5866;49.094;11.900;2023-02-21T06:16:42;96494.22;;;8.50;100.00
11621;BME280;5866;49.094;11.900;2023-02-21T06:19:12;96490.00;;;8.57;100.00
11621;BME280;5866;49.094;11.900;2023-02-21T06:21:42;96481.69;;;9.16;100.00
11621;BME280;5866;49.094;11.900;2023-02-21T06:24:10;96483.72;;;9.05;100.00
11621;BME280;5866;49.094;11.900;2023-02-21T06:26:38;96486.72;;;9.10;100.00
11621;BME280;5866;49.094;11.900;2023-02-21T06:29:08;96482.38;;;8.91;100.00
11621;BME280;5866;49.094;11.900;2023-02-21T06:31:36;96485.84;;;8.92;100.00
11621;BME280;5866;49.094;11.900;2023-02-21T06:34:04;96491.25;;;9.27;99.12
11621;BME280;5866;49.094;11.900;2023-02-21T06:36:32;96493.72;;;9.38;97.09
11621;BME280;5866;49.094;11.900;2023-02-21T06:39:00;96497.91;;;9.31;97.58
11621;BME280;5866;49.094;11.900;2023-02-21T06:41:28;96493.03;;;9.36;97.72
11621;BME280;5866;49.094;11.900;2023-02-21T06:43:57;96493.00;;;9.81;94.02
11621;BME280;5866;49.094;11.900;2023-02-21T06:46:28;96500.06;;;10.07;90.94
11621;BME280;5866;49.094;11.900;2023-02-21T06:48:56;96508.53;;;10.28;89.00
11621;BME280;5866;49.094;11.900;2023-02-21T06:51:24;96510.66;;;10.43;88.23
11621;BME280;5866;49.094;11.900;2023-02-21T06:53:56;96503.09;;;10.12;89.89
11621;BME280;5866;49.094;11.900;2023-02-21T06:56:24;96503.19;;;9.58;93.73
11621;BME280;5866;49.094;11.900;2023-02-21T06:58:52;96506.25;;;9.09;100.00
11621;BME280;5866;49.094;11.900;2023-02-21T07:01:20;96514.78;;;9.03;100.00
11621;BME280;5866;49.094;11.900;2023-02-21T07:03:50;96520.88;;;8.66;100.00
11621;BME280;5866;49.094;11.900;2023-02-21T07:06:18;96515.34;;;8.50;100.00
11621;BME280;5866;49.094;11.900;2023-02-21T07:08:45;96522.63;;;8.75;100.00
11621;BME280;5866;49.094;11.900;2023-02-21T07:11:14;96506.50;;;8.78;100.00
11621;BME280;5866;49.094;11.900;2023-02-21T07:13:46;96515.22;;;8.89;100.00
11621;BME280;5866;49.094;11.900;2023-02-21T07:16:13;96513.91;;;8.65;100.00
11621;BME280;5866;49.094;11.900;2023-02-21T07:18:43;96522.72;;;7.99;100.00
11621;BME280;5866;49.094;11.900;2023-02-21T07:21:12;96522.88;;;8.17;100.00
11621;BME280;5866;49.094;11.900;2023-02-21T07:23:42;96522.59;;;8.10;100.00
11621;BME280;5866;49.094;11.900;2023-02-21T07:26:10;96515.91;;;7.96;100.00
11621;BME280;5866;49.094;11.900;2023-02-21T07:28:37;96518.97;;;8.30;100.00
11621;BME280;5866;49.094;11.900;2023-02-21T07:31:05;96523.28;;;8.12;100.00
11621;BME280;5866;49.094;11.900;2023-02-21T07:33:32;96517.56;;;8.45;100.00
11621;BME280;5866;49.094;11.900;2023-02-21T07:36:00;96526.59;;;8.62;100.00
11621;BME280;5866;49.094;11.900;2023-02-21T07:38:29;96525.47;;;9.11;100.00
11621;BME280;5866;49.094;11.900;2023-02-21T07:40:58;96523.72;;;9.74;100.00
11621;BME280;5866;49.094;11.900;2023-02-21T07:43:28;96519.56;;;10.42;94.89
11621;BME280;5866;49.094;11.900;2023-02-21T07:45:56;96519.91;;;10.64;88.83
11621;BME280;5866;49.094;11.900;2023-02-21T07:48:24;96520.59;;;10.92;88.38
11621;BME280;5866;49.094;11.900;2023-02-21T07:50:51;96535.81;;;10.64;88.61
11621;BME280;5866;49.094;11.900;2023-02-21T07:53:19;96527.06;;;10.64;87.81
11621;BME280;5866;49.094;11.900;2023-02-21T07:55:48;96534.91;;;10.73;86.12
11621;BME280;5866;49.094;11.900;2023-02-21T07:58:15;96536.03;;;10.71;87.79
11621;BME280;5866;49.094;11.900;2023-02-21T08:00:46;96544.34;;;11.27;84.46
11621;BME280;5866;49.094;11.900;2023-02-21T08:03:13;96550.31;;;11.63;80.43
11621;BME280;5866;49.094;11.900;2023-02-21T08:05:41;96549.31;;;11.98;78.64
11621;BME280;5866;49.094;11.900;2023-02-21T08:08:09;96550.66;;;12.18;77.26
11621;BME280;5866;49.094;11.900;2023-02-21T08:10:37;96556.19;;;11.66;78.84
11621;BME280;5866;49.094;11.900;2023-02-21T08:13:06;96555.00;;;11.69;78.92
11621;BME280;5866;49.094;11.900;2023-02-21T08:15:33;96555.41;;;11.48;78.77
11621;BME280;5866;49.094;11.900;2023-02-21T08:18:01;96552.94;;;11.21;81.71
11621;BME280;5866;49.094;11.900;2023-02-21T08:20:28;96552.59;;;10.90;84.59
11621;BME280;5866;49.094;11.900;2023-02-21T08:22:56;96553.44;;;10.91;85.94
11621;BME280;5866;49.094;11.900;2023-02-21T08:25:23;96556.72;;;10.85;86.23
11621;BME280;5866;49.094;11.900;2023-02-21T08:27:51;96562.75;;;10.95;86.37
11621;BME280;5866;49.094;11.900;2023-02-21T08:30:21;96553.63;;;11.23;84.07
11621;BME280;5866;49.094;11.900;2023-02-21T08:32:50;96567.53;;;11.84;81.83
11621;BME280;5866;49.094;11.900;2023-02-21T08:35:19;96558.63;;;11.60;79.99
11621;BME280;5866;49.094;11.900;2023-02-21T08:37:47;96553.50;;;12.16;77.75
11621;BME280;5866;49.094;11.900;2023-02-21T08:40:18;96556.19;;;11.66;81.10
11621;BME280;5866;49.094;11.900;2023-02-21T08:42:48;96555.44;;;11.56;83.61
11621;BME280;5866;49.094;11.900;2023-02-21T08:45:17;96555.38;;;11.74;81.63
11621;BME280;5866;49.094;11.900;2023-02-21T08:47:46;96549.22;;;11.73;82.73
11621;BME280;5866;49.094;11.900;2023-02-21T08:50:14;96540.06;;;12.66;79.37
11621;BME280;5866;49.094;11.900;2023-02-21T08:52:41;96536.63;;;14.06;69.02
11621;BME280;5866;49.094;11.900;2023-02-21T08:55:09;96542.03;;;14.51;64.68
11621;BME280;5866;49.094;11.900;2023-02-21T08:57:36;96546.25;;;16.08;60.07
11621;BME280;5866;49.094;11.900;2023-02-21T09:00:05;96547.25;;;17.33;55.05
11621;BME280;5866;49.094;11.900;2023-02-21T09:02:36;96537.69;;;17.86;52.53
11621;BME280;5866;49.094;11.900;2023-02-21T09:05:07;96538.44;;;17.46;52.01
11621;BME280;5866;49.094;11.900;2023-02-21T09:07:35;96542.22;;;17.24;52.52
11621;BME280;5866;49.094;11.900;2023-02-21T09:10:04;96535.09;;;16.61;53.96
11621;BME280;5866;49.094;11.900;2023-02-21T09:12:31;96537.84;;;16.32;55.16
11621;BME280;5866;49.094;11.900;2023-02-21T09:14:59;96543.03;;;15.98;56.72
11621;BME280;5866;49.094;11.900;2023-02-21T09:17:26;96541.09;;;16.06;55.71
11621;BME280;5866;49.094;11.900;2023-02-21T09:19:54;96550.28;;;16.18;56.59
11621;BME280;5866;49.094;11.900;2023-02-21T09:22:23;96542.19;;;16.68;55.22
11621;BME280;5866;49.094;11.900;2023-02-21T09:24:50;96557.47;;;16.75;55.86
11621;BME280;5866;49.094;11.900;2023-02-21T09:27:18;96558.75;;;16.57;54.83
11621;BME280;5866;49.094;11.900;2023-02-21T09:29:45;96550.63;;;16.15;56.10
11621;BME280;5866;49.094;11.900;2023-02-21T09:32:13;96560.03;;;16.61;55.54
11621;BME280;5866;49.094;11.900;2023-02-21T09:34:40;96562.00;;;16.38;55.54
11621;BME280;5866;49.094;11.900;2023-02-21T09:37:08;96555.06;;;17.35;53.56
11621;BME280;5866;49.094;11.900;2023-02-21T09:39:37;96568.53;;;16.29;55.54
11621;BME280;5866;49.094;11.900;2023-02-21T09:42:05;96568.97;;;15.82;58.25
11621;BME280;5866;49.094;11.900;2023-02-21T09:44:33;96563.63;;;15.53;60.05
11621;BME280;5866;49.094;11.900;2023-02-21T09:47:03;96569.25;;;13.38;72.53
11621;BME280;5866;49.094;11.900;2023-02-21T09:49:34;96571.97;;;12.74;78.42
11621;BME280;5866;49.094;11.900;2023-02-21T09:52:04;96574.66;;;12.58;82.02
11621;BME280;5866;49.094;11.900;2023-02-21T09:54:38;96579.22;;;12.00;91.65
11621;BME280;5866;49.094;11.900;2023-02-21T09:57:11;96578.59;;;12.30;89.31
11621;BME280;5866;49.094;11.900;2023-02-21T09:59:40;96577.13;;;12.43;89.12
11621;BME280;5866;49.094;11.900;2023-02-21T10:02:23;96582.38;;;12.11;89.88
11621;BME280;5866;49.094;11.900;2023-02-21T10:05:02;96570.97;;;13.07;83.50
11621;BME280;5866;49.094;11.900;2023-02-21T10:07:38;96574.16;;;12.62;84.67
11621;BME280;5866;49.094;11.900;2023-02-21T10:10:15;96577.63;;;12.55;86.12
11621;BME280;5866;49.094;11.900;2023-02-21T10:12:51;96580.25;;;12.15;92.80
11621;BME280;5866;49.094;11.900;2023-02-21T10:15:38;96568.31;;;12.83;87.52
11621;BME280;5866;49.094;11.900;2023-02-21T10:18:15;96569.50;;;13.68;78.68
11621;BME280;5866;49.094;11.900;2023-02-21T10:20:48;96559.50;;;13.62;78.16
11621;BME280;5866;49.094;11.900;2023-02-21T10:23:21;96563.06;;;13.85;77.75
11621;BME280;5866;49.094;11.900;2023-02-21T10:25:55;96560.94;;;14.11;75.52
11621;BME280;5866;49.094;11.900;2023-02-21T10:28:25;96557.81;;;14.38;73.95
11621;BME280;5866;49.094;11.900;2023-02-21T10:30:56;96560.84;;;14.27;72.94
11621;BME280;5866;49.094;11.900;2023-02-21T10:33:25;96567.84;;;14.05;77.04
11621;BME280;5866;49.094;11.900;2023-02-21T10:35:52;96574.50;;;14.01;76.55
11621;BME280;5866;49.094;11.900;2023-02-21T10:38:24;96572.78;;;13.31;79.74
11621;BME280;5866;49.094;11.900;2023-02-21T10:40:55;96569.97;;;13.71;80.58
11621;BME280;5866;49.094;11.900;2023-02-21T10:43:27;96565.63;;;14.62;74.47
11621;BME280;5866;49.094;11.900;2023-02-21T10:46:01;96570.56;;;15.77;68.48
11621;BME280;5866;49.094;11.900;2023-02-21T10:48:34;96563.53;;;15.76;64.29
11621;BME280;5866;49.094;11.900;2023-02-21T10:51:07;96554.34;;;14.75;69.40
11621;BME280;5866;49.094;11.900;2023-02-21T10:53:37;96553.47;;;13.29;79.01
11621;BME280;5866;49.094;11.900;2023-02-21T10:56:09;96552.16;;;13.17;80.83
11621;BME280;5866;49.094;11.900;2023-02-21T10:58:44;96539.19;;;13.06;87.89
11621;BME280;5866;49.094;11.900;2023-02-21T11:01:14;96553.94;;;13.32;88.12
11621;BME280;5866;49.094;11.900;2023-02-21T11:03:45;96540.38;;;12.87;88.90
11621;BME280;5866;49.094;11.900;2023-02-21T11:06:31;96543.47;;;14.08;79.60
11621;BME280;5866;49.094;11.900;2023-02-21T11:09:00;96546.84;;;15.45;70.99
11621;BME280;5866;49.094;11.900;2023-02-21T11:11:34;96532.34;;;14.50;74.33
11621;BME280;5866;49.094;11.900;2023-02-21T11:14:18;96536.88;;;13.96;80.44
11621;BME280;5866;49.094;11.900;2023-02-21T11:17:04;96540.19;;;13.60;81.85
11621;BME280;5866;49.094;11.900;2023-02-21T11:19:41;96530.47;;;13.75;82.30
11621;BME280;5866;49.094;11.900;2023-02-21T11:22:10;96527.72;;;13.91;84.27
11621;BME280;5866;49.094;11.900;2023-02-21T11:24:46;96521.13;;;13.79;81.69
11621;BME280;5866;49.094;11.900;2023-02-21T11:27:17;96518.09;;;12.88;87.27
11621;BME280;5866;49.094;11.900;2023-02-21T11:29:47;96509.41;;;12.86;89.29
11621;BME280;5866;49.094;11.900;2023-02-21T11:32:23;96520.75;;;12.88;88.81
11621;BME280;5866;49.094;11.900;2023-02-21T11:34:59;96508.66;;;13.32;86.05
11621;BME280;5866;49.094;11.900;2023-02-21T11:37:27;96509.78;;;13.77;82.55
11621;BME280;5866;49.094;11.900;2023-02-21T11:39:57;96504.81;;;13.35;84.94
11621;BME280;5866;49.094;11.900;2023-02-21T11:42:30;96498.09;;;13.86;81.41
11621;BME280;5866;49.094;11.900;2023-02-21T11:45:20;96491.22;;;13.91;81.01
11621;BME280;5866;49.094;11.900;2023-02-21T11:47:55;96487.44;;;14.08;79.41
11621;BME280;5866;49.094;11.900;2023-02-21T11:50:26;96481.63;;;13.82;82.29
11621;BME280;5866;49.094;11.900;2023-02-21T11:53:00;96469.28;;;14.72;77.30
11621;BME280;5866;49.094;11.900;2023-02-21T11:55:30;96478.25;;;15.23;73.23
11621;BME280;5866;49.094;11.900;2023-02-21T11:58:06;96473.63;;;15.31;70.27
11621;BME280;5866;49.094;11.900;2023-02-21T12:00:42;96463.03;;;14.94;73.13
11621;BME280;5866;49.094;11.900;2023-02-21T12:03:46;96468.03;;;14.45;78.57
11621;BME280;5866;49.094;11.900;2023-02-21T12:06:24;96455.03;;;13.97;80.01
11621;BME280;5866;49.094;11.900;2023-02-21T12:08:57;96456.41;;;13.85;83.04
11621;BME280;5866;49.094;11.900;2023-02-21T12:11:39;96446.91;;;14.13;83.58
11621;BME280;5866;49.094;11.900;2023-02-21T12:14:25;96447.28;;;14.70;77.02
11621;BME280;5866;49.094;11.900;2023-02-21T12:17:08;96438.25;;;14.11;79.54
11621;BME280;5866;49.094;11.900;2023-02-21T12:19:52;96441.56;;;14.13;81.06
11621;BME280;5866;49.094;11.900;2023-02-21T12:22:35;96445.50;;;14.62;80.59
11621;BME280;5866;49.094;11.900;2023-02-21T12:25:16;96440.56;;;15.18;74.91
11621;BME280;5866;49.094;11.900;2023-02-21T12:27:51;96434.34;;;13.99;77.88
11621;BME280;5866;49.094;11.900;2023-02-21T12:30:34;96430.50;;;14.16;82.85
11621;BME280;5866;49.094;11.900;2023-02-21T12:33:17;96426.13;;;14.46;77.28
11621;BME280;5866;49.094;11.900;2023-02-21T12:36:03;96432.69;;;14.43;78.09
11621;BME280;5866;49.094;11.900;2023-02-21T12:38:50;96419.44;;;14.27;77.65
11621;BME280;5866;49.094;11.900;2023-02-21T12:41:40;96413.44;;;14.48;80.12
11621;BME280;5866;49.094;11.900;2023-02-21T12:44:12;96407.00;;;15.30;76.07
11621;BME280;5866;49.094;11.900;2023-02-21T12:46:48;96410.00;;;15.05;74.81
11621;BME280;5866;49.094;11.900;2023-02-21T12:49:21;96404.13;;;15.31;76.32
11621;BME280;5866;49.094;11.900;2023-02-21T12:51:55;96397.91;;;15.09;73.61
11621;BME280;5866;49.094;11.900;2023-02-21T12:54:35;96391.84;;;14.86;75.45
11621;BME280;5866;49.094;11.900;2023-02-21T12:57:09;96392.91;;;14.48;78.98
11621;BME280;5866;49.094;11.900;2023-02-21T12:59:47;96381.97;;;14.20;81.69
11621;BME280;5866;49.094;11.900;2023-02-21T13:02:26;96387.50;;;14.85;79.19
11621;BME280;5866;49.094;11.900;2023-02-21T13:05:04;96385.81;;;15.43;72.95
11621;BME280;5866;49.094;11.900;2023-02-21T13:07:41;96379.50;;;14.85;73.46
11621;BME280;5866;49.094;11.900;2023-02-21T13:10:14;96388.97;;;14.88;74.79
11621;BME280;5866;49.094;11.900;2023-02-21T13:12:48;96377.00;;;14.98;75.85
11621;BME280;5866;49.094;11.900;2023-02-21T13:15:20;96372.44;;;15.43;73.24
11621;BME280;5866;49.094;11.900;2023-02-21T13:17:54;96367.84;;;15.37;71.34
11621;BME280;5866;49.094;11.900;2023-02-21T13:20:26;96362.03;;;15.69;72.53
11621;BME280;5866;49.094;11.900;2023-02-21T13:23:13;96352.22;;;14.90;74.99
11621;BME280;5866;49.094;11.900;2023-02-21T13:26:15;96343.53;;;15.17;74.42
11621;BME280;5866;49.094;11.900;2023-02-21T13:28:50;96332.63;;;15.69;72.08
11621;BME280;5866;49.094;11.900;2023-02-21T13:31:19;96339.56;;;15.84;70.97
11621;BME280;5866;49.094;11.900;2023-02-21T13:33:51;96329.09;;;16.38;67.69
11621;BME280;5866;49.094;11.900;2023-02-21T13:36:22;96331.75;;;15.83;70.34